createdAt,value
2017-10-10T00:00:47.321Z,0
2017-10-10T00:01:57.725Z,0
2017-10-10T00:03:08.130Z,0
2017-10-10T00:04:18.541Z,0
2017-10-10T00:05:28.281Z,0
2017-10-10T00:06:38.681Z,0
2017-10-10T00:07:49.803Z,0
2017-10-10T00:09:00.227Z,0
2017-10-10T00:10:10.365Z,0
2017-10-10T00:11:20.440Z,0
2017-10-10T00:12:30.852Z,0
2017-10-10T00:13:40.924Z,0
2017-10-10T00:14:51.331Z,0
2017-10-10T00:16:01.733Z,0
2017-10-10T00:17:12.163Z,0
2017-10-10T00:18:22.230Z,0
2017-10-10T00:19:32.637Z,0
2017-10-10T00:20:43.040Z,0
2017-10-10T00:21:53.441Z,0
2017-10-10T00:23:03.846Z,0
2017-10-10T00:24:14.249Z,0
2017-10-10T00:25:24.693Z,0
2017-10-10T00:26:34.781Z,0
2017-10-10T00:27:45.235Z,0
2017-10-10T00:28:55.639Z,0
2017-10-10T00:30:06.044Z,0
2017-10-10T00:31:16.469Z,0
2017-10-10T00:32:26.889Z,0
2017-10-10T00:33:37.336Z,0
2017-10-10T00:34:47.777Z,0
2017-10-10T00:35:58.178Z,0
2017-10-10T00:37:08.258Z,0
2017-10-10T00:38:18.702Z,0
2017-10-10T00:39:29.107Z,0
2017-10-10T00:40:39.177Z,0
2017-10-10T00:41:49.575Z,0
2017-10-10T00:42:59.977Z,0
2017-10-10T00:44:10.377Z,0
2017-10-10T00:45:20.812Z,0
2017-10-10T00:46:31.201Z,0
2017-10-10T00:47:41.283Z,0
2017-10-10T00:48:51.691Z,0
2017-10-10T00:50:02.086Z,0
2017-10-10T00:51:12.225Z,0
2017-10-10T00:52:22.643Z,0
2017-10-10T00:53:32.709Z,0
2017-10-10T00:54:42.455Z,0
2017-10-10T00:55:52.845Z,0
2017-10-10T00:57:03.241Z,0
2017-10-10T00:58:13.639Z,0
2017-10-10T00:59:24.040Z,0
2017-10-10T01:00:34.430Z,0
2017-10-10T01:01:44.832Z,0
2017-10-10T01:02:55.251Z,0
2017-10-10T01:04:05.343Z,0
2017-10-10T01:05:15.756Z,0
2017-10-10T01:06:25.818Z,0
2017-10-10T01:07:36.220Z,0
2017-10-10T01:08:46.296Z,0
2017-10-10T01:09:56.715Z,0
2017-10-10T01:11:07.119Z,0
2017-10-10T01:12:17.208Z,0
2017-10-10T01:13:27.618Z,0
2017-10-10T01:14:37.687Z,0
2017-10-10T01:15:47.760Z,0
2017-10-10T01:16:57.829Z,0
2017-10-10T01:18:08.228Z,0
2017-10-10T01:19:17.986Z,0
2017-10-10T01:20:27.794Z,0
2017-10-10T01:21:38.211Z,0
2017-10-10T01:22:48.280Z,0
2017-10-10T01:23:58.672Z,0
2017-10-10T01:25:09.077Z,0
2017-10-10T01:26:19.470Z,0
2017-10-10T01:27:29.877Z,0
2017-10-10T01:28:40.277Z,0
2017-10-10T01:29:50.675Z,0
2017-10-10T01:31:01.084Z,0
2017-10-10T01:32:11.212Z,0
2017-10-10T01:33:21.613Z,0
2017-10-10T01:34:32.028Z,0
2017-10-10T01:35:42.419Z,0
2017-10-10T01:36:53.024Z,0
2017-10-10T01:38:03.097Z,0
2017-10-10T01:39:13.507Z,0
2017-10-10T01:40:23.940Z,0
2017-10-10T01:41:34.341Z,0
2017-10-10T01:42:44.742Z,0
2017-10-10T01:43:55.180Z,0
2017-10-10T01:45:05.261Z,0
2017-10-10T01:46:15.675Z,0
2017-10-10T01:47:26.069Z,0
2017-10-10T01:48:36.129Z,0
2017-10-10T01:49:46.248Z,0
2017-10-10T01:50:56.645Z,0
2017-10-10T01:52:06.376Z,0
2017-10-10T01:53:16.449Z,0
2017-10-10T01:54:26.848Z,0
2017-10-10T01:55:36.921Z,0
2017-10-10T01:56:47.319Z,0
2017-10-10T01:57:57.401Z,0
2017-10-10T01:59:07.800Z,0
2017-10-10T02:00:18.222Z,0
2017-10-10T02:01:28.678Z,0
2017-10-10T02:02:39.092Z,0
2017-10-10T02:03:49.497Z,0
2017-10-10T02:04:59.966Z,0
2017-10-10T02:06:10.378Z,0
2017-10-10T02:07:20.504Z,0
2017-10-10T02:08:30.578Z,0
2017-10-10T02:09:40.686Z,0
2017-10-10T02:10:50.746Z,0
2017-10-10T02:12:00.830Z,0
2017-10-10T02:13:10.950Z,0
2017-10-10T02:14:21.040Z,0
2017-10-10T02:15:31.109Z,0
2017-10-10T02:16:41.192Z,0
2017-10-10T02:17:51.591Z,0
2017-10-10T02:19:01.989Z,0
2017-10-10T02:20:12.405Z,0
2017-10-10T02:21:22.810Z,0
2017-10-10T02:22:33.519Z,0
2017-10-10T02:23:43.918Z,0
2017-10-10T02:24:54.311Z,0
2017-10-10T02:26:04.397Z,0
2017-10-10T02:27:14.781Z,0
2017-10-10T02:28:24.872Z,0
2017-10-10T02:29:35.279Z,0
2017-10-10T02:30:45.680Z,0
2017-10-10T02:31:55.769Z,0
2017-10-10T02:33:05.849Z,0
2017-10-10T02:34:16.278Z,0
2017-10-10T02:35:26.672Z,0
2017-10-10T02:36:36.419Z,0
2017-10-10T02:37:46.823Z,0
2017-10-10T02:38:57.220Z,0
2017-10-10T02:40:07.650Z,0
2017-10-10T02:41:18.073Z,0
2017-10-10T02:42:28.536Z,0
2017-10-10T02:43:38.954Z,0
2017-10-10T02:44:49.041Z,0
2017-10-10T02:45:59.478Z,0
2017-10-10T02:47:09.893Z,0
2017-10-10T02:48:20.354Z,0
2017-10-10T02:49:30.754Z,0
2017-10-10T02:50:40.862Z,0
2017-10-10T02:51:51.257Z,0
2017-10-10T02:53:01.650Z,0
2017-10-10T02:54:11.791Z,0
2017-10-10T02:55:22.204Z,0
2017-10-10T02:56:32.288Z,0
2017-10-10T02:57:42.363Z,0
2017-10-10T02:58:52.767Z,0
2017-10-10T03:00:03.217Z,0
2017-10-10T03:01:13.607Z,0
2017-10-10T03:02:24.018Z,0
2017-10-10T03:34:05.671Z,0
2017-10-10T03:35:16.051Z,0
2017-10-10T03:36:26.116Z,0
2017-10-10T03:37:36.518Z,0
2017-10-10T03:38:46.613Z,0
2017-10-10T03:39:56.695Z,0
2017-10-10T03:41:06.804Z,0
2017-10-10T03:42:16.882Z,0
2017-10-10T03:43:27.291Z,0
2017-10-10T03:44:37.031Z,0
2017-10-10T03:45:47.489Z,0
2017-10-10T03:46:57.551Z,0
2017-10-10T03:48:07.955Z,0
2017-10-10T03:49:18.354Z,0
2017-10-10T03:50:28.412Z,0
2017-10-10T03:51:38.822Z,0
2017-10-10T03:52:48.906Z,0
2017-10-10T03:53:58.967Z,0
2017-10-10T03:55:09.039Z,0
2017-10-10T03:56:19.445Z,0
2017-10-10T03:57:29.569Z,0
2017-10-10T03:58:39.970Z,0
2017-10-10T03:59:50.371Z,0
2017-10-10T04:01:00.767Z,0
2017-10-10T04:02:10.847Z,0
2017-10-10T04:03:21.294Z,0
2017-10-10T04:04:31.403Z,0
2017-10-10T04:05:41.798Z,0
2017-10-10T04:06:51.870Z,0
2017-10-10T04:08:01.959Z,0
2017-10-10T04:09:12.354Z,0
2017-10-10T04:10:22.448Z,0
2017-10-10T04:11:32.836Z,0
2017-10-10T04:12:42.914Z,0
2017-10-10T04:13:53.330Z,0
2017-10-10T04:15:03.746Z,0
2017-10-10T04:16:13.814Z,0
2017-10-10T04:17:24.231Z,0
2017-10-10T04:18:34.647Z,0
2017-10-10T04:19:45.049Z,0
2017-10-10T04:20:55.445Z,0
2017-10-10T04:22:05.529Z,0
2017-10-10T04:23:15.946Z,0
2017-10-10T04:24:26.406Z,0
2017-10-10T04:25:37.089Z,0
2017-10-10T04:26:47.164Z,0
2017-10-10T04:27:57.563Z,0
2017-10-10T04:29:07.960Z,0
2017-10-10T04:30:18.041Z,0
2017-10-10T04:31:28.457Z,0
2017-10-10T04:32:38.526Z,0
2017-10-10T04:33:48.604Z,0
2017-10-10T04:34:59.014Z,0
2017-10-10T04:36:09.063Z,0
2017-10-10T04:37:19.462Z,0
2017-10-10T04:38:29.862Z,0
2017-10-10T04:39:40.268Z,0
2017-10-10T04:40:50.351Z,0
2017-10-10T04:42:00.744Z,0
2017-10-10T04:43:10.825Z,0
2017-10-10T04:44:21.233Z,0
2017-10-10T04:45:31.322Z,0
2017-10-10T04:46:41.719Z,0
2017-10-10T04:47:51.790Z,0
2017-10-10T04:49:02.196Z,0
2017-10-10T04:50:12.643Z,0
2017-10-10T04:51:22.717Z,0
2017-10-10T04:52:32.469Z,0
2017-10-10T04:53:42.867Z,0
2017-10-10T04:54:53.285Z,0
2017-10-10T04:56:03.694Z,0
2017-10-10T04:57:14.101Z,0
2017-10-10T04:58:24.529Z,0
2017-10-10T04:59:34.959Z,0
2017-10-10T05:00:45.356Z,0
2017-10-10T05:01:55.750Z,0
2017-10-10T05:03:06.152Z,0
2017-10-10T05:04:16.573Z,0
2017-10-10T05:05:26.968Z,5
2017-10-10T05:06:37.367Z,5
2017-10-10T05:07:47.753Z,5
2017-10-10T05:08:58.154Z,5
2017-10-10T05:10:08.567Z,5
2017-10-10T05:11:18.634Z,5
2017-10-10T05:12:28.718Z,5
2017-10-10T05:13:39.165Z,5
2017-10-10T05:14:49.806Z,10
2017-10-10T05:15:59.893Z,10
2017-10-10T05:17:10.290Z,10
2017-10-10T05:18:20.367Z,10
2017-10-10T05:19:30.768Z,10
2017-10-10T05:20:41.182Z,10
2017-10-10T05:21:51.584Z,10
2017-10-10T05:23:02.045Z,10
2017-10-10T05:24:12.456Z,15
2017-10-10T05:25:22.840Z,15
2017-10-10T05:26:33.237Z,15
2017-10-10T05:27:43.644Z,15
2017-10-10T05:28:54.097Z,15
2017-10-10T05:30:04.170Z,15
2017-10-10T05:31:14.252Z,15
2017-10-10T05:32:24.647Z,20
2017-10-10T05:33:35.053Z,20
2017-10-10T05:34:45.504Z,20
2017-10-10T05:35:55.914Z,20
2017-10-10T05:37:06.333Z,20
2017-10-10T05:38:16.740Z,25
2017-10-10T05:39:26.814Z,25
2017-10-10T05:40:36.917Z,25
2017-10-10T05:41:47.313Z,25
2017-10-10T05:42:57.387Z,25
2017-10-10T05:44:07.489Z,25
2017-10-10T05:45:17.888Z,25
2017-10-10T05:46:27.960Z,25
2017-10-10T05:47:38.040Z,25
2017-10-10T05:48:48.441Z,25
2017-10-10T05:49:58.538Z,25
2017-10-10T05:51:08.627Z,25
2017-10-10T05:52:19.030Z,25
2017-10-10T05:53:29.810Z,25
2017-10-10T05:54:40.213Z,25
2017-10-10T05:55:50.564Z,25
2017-10-10T05:57:00.913Z,25
2017-10-10T05:58:11.235Z,25
2017-10-10T05:59:21.597Z,25
2017-10-10T06:00:31.946Z,25
2017-10-10T06:01:41.963Z,25
2017-10-10T06:02:52.301Z,30
2017-10-10T06:04:02.633Z,30
2017-10-10T06:05:12.992Z,35
2017-10-10T06:06:23.371Z,40
2017-10-10T06:07:33.397Z,40
2017-10-10T06:08:43.723Z,40
2017-10-10T06:09:54.082Z,40
2017-10-10T06:11:04.419Z,40
2017-10-10T06:12:14.443Z,40
2017-10-10T06:13:24.463Z,40
2017-10-10T06:14:34.802Z,40
2017-10-10T06:15:45.149Z,40
2017-10-10T06:16:55.488Z,40
2017-10-10T06:18:05.488Z,40
2017-10-10T06:19:15.850Z,40
2017-10-10T06:20:25.876Z,40
2017-10-10T06:21:35.885Z,40
2017-10-10T06:22:46.227Z,40
2017-10-10T06:23:56.587Z,40
2017-10-10T06:25:06.949Z,40
2017-10-10T06:26:16.642Z,40
2017-10-10T06:27:26.964Z,40
2017-10-10T06:28:37.324Z,45
2017-10-10T06:29:47.360Z,45
2017-10-10T06:30:57.697Z,45
2017-10-10T06:32:08.129Z,50
2017-10-10T06:33:18.521Z,50
2017-10-10T06:34:28.873Z,55
2017-10-10T06:35:38.904Z,60
2017-10-10T06:36:48.928Z,60
2017-10-10T06:37:58.947Z,65
2017-10-10T06:39:08.984Z,65
2017-10-10T06:40:18.341Z,70
2017-10-10T06:41:28.344Z,70
2017-10-10T06:42:38.345Z,70
2017-10-10T06:43:48.390Z,70
2017-10-10T06:44:58.725Z,70
2017-10-10T06:46:09.070Z,70
2017-10-10T06:47:19.420Z,70
2017-10-10T06:48:29.746Z,70
2017-10-10T06:49:40.087Z,65
2017-10-10T06:50:50.433Z,65
2017-10-10T06:52:00.774Z,70
2017-10-10T06:53:11.111Z,70
2017-10-10T06:54:21.128Z,70
2017-10-10T06:55:31.449Z,70
2017-10-10T06:56:41.146Z,65
2017-10-10T06:57:50.837Z,65
2017-10-10T06:59:01.167Z,60
2017-10-10T07:00:11.190Z,60
2017-10-10T07:01:21.528Z,65
2017-10-10T07:02:31.874Z,65
2017-10-10T07:03:41.896Z,70
2017-10-10T07:04:52.243Z,70
2017-10-10T07:06:02.586Z,70
2017-10-10T07:07:13.140Z,70
2017-10-10T07:08:23.153Z,75
2017-10-10T07:09:33.176Z,75
2017-10-10T07:10:43.226Z,70
2017-10-10T07:11:53.470Z,70
2017-10-10T07:13:03.485Z,65
2017-10-10T07:14:13.512Z,65
2017-10-10T07:15:23.779Z,60
2017-10-10T07:16:34.233Z,60
2017-10-10T07:17:44.585Z,60
2017-10-10T07:18:54.596Z,60
2017-10-10T07:20:05.468Z,60
2017-10-10T07:21:15.801Z,65
2017-10-10T07:22:26.147Z,65
2017-10-10T07:23:36.483Z,70
2017-10-10T07:24:46.508Z,75
2017-10-10T07:25:56.843Z,80
2017-10-10T07:27:06.860Z,85
2017-10-10T07:28:17.174Z,85
2017-10-10T07:29:26.882Z,90
2017-10-10T07:30:38.341Z,85
2017-10-10T07:31:51.038Z,90
2017-10-10T07:33:01.157Z,75
2017-10-10T07:34:12.566Z,70
2017-10-10T07:35:22.924Z,70
2017-10-10T07:36:33.275Z,60
2017-10-10T07:37:43.615Z,60
2017-10-10T07:38:53.641Z,55
2017-10-10T07:40:03.979Z,50
2017-10-10T07:41:14.307Z,50
2017-10-10T07:42:24.646Z,45
2017-10-10T07:43:34.986Z,45
2017-10-10T07:44:45.323Z,45
2017-10-10T07:45:55.642Z,45
2017-10-10T07:47:05.984Z,50
2017-10-10T07:48:16.319Z,50
2017-10-10T07:49:26.651Z,50
2017-10-10T07:50:36.987Z,55
2017-10-10T07:51:47.010Z,60
2017-10-10T07:52:57.351Z,60
2017-10-10T07:54:07.719Z,60
2017-10-10T07:55:18.068Z,65
2017-10-10T07:56:28.427Z,65
2017-10-10T07:57:38.792Z,65
2017-10-10T07:58:49.165Z,70
2017-10-10T07:59:59.501Z,70
2017-10-10T08:01:09.849Z,70
2017-10-10T08:02:20.183Z,65
2017-10-10T08:03:30.529Z,60
2017-10-10T08:04:40.553Z,60
2017-10-10T08:05:50.548Z,60
2017-10-10T08:07:00.943Z,60
2017-10-10T08:08:11.285Z,60
2017-10-10T08:09:21.626Z,65
2017-10-10T08:10:31.637Z,65
2017-10-10T08:11:41.978Z,60
2017-10-10T08:12:52.306Z,60
2017-10-10T08:14:02.628Z,60
2017-10-10T08:15:12.649Z,60
2017-10-10T08:16:23.016Z,60
2017-10-10T08:17:33.388Z,65
2017-10-10T08:18:43.457Z,70
2017-10-10T08:19:53.794Z,70
2017-10-10T08:21:04.115Z,70
2017-10-10T08:22:14.458Z,70
2017-10-10T08:23:24.471Z,75
2017-10-10T08:24:34.477Z,75
2017-10-10T08:25:44.814Z,75
2017-10-10T08:26:54.817Z,75
2017-10-10T08:28:04.821Z,75
2017-10-10T08:29:15.198Z,80
2017-10-10T08:30:25.598Z,80
2017-10-10T08:31:35.934Z,80
2017-10-10T08:32:45.644Z,80
2017-10-10T08:33:55.973Z,85
2017-10-10T08:35:06.335Z,85
2017-10-10T08:36:16.681Z,90
2017-10-10T08:37:27.010Z,95
2017-10-10T08:38:37.368Z,100
2017-10-10T08:39:47.377Z,100
2017-10-10T08:40:57.732Z,100
2017-10-10T08:42:08.101Z,95
2017-10-10T08:43:18.443Z,95
2017-10-10T08:44:28.798Z,90
2017-10-10T08:45:38.810Z,95
2017-10-10T08:46:49.163Z,105
2017-10-10T08:47:59.519Z,115
2017-10-10T08:49:09.876Z,130
2017-10-10T08:50:20.227Z,135
2017-10-10T08:51:30.572Z,125
2017-10-10T08:52:40.915Z,120
2017-10-10T08:53:51.263Z,125
2017-10-10T08:55:01.265Z,135
2017-10-10T08:56:11.629Z,140
2017-10-10T08:57:20.998Z,135
2017-10-10T08:58:31.025Z,130
2017-10-10T08:59:40.758Z,135
2017-10-10T09:00:50.458Z,130
2017-10-10T09:02:00.814Z,130
2017-10-10T09:03:10.836Z,125
2017-10-10T09:04:21.203Z,120
2017-10-10T09:05:31.566Z,120
2017-10-10T09:06:41.913Z,115
2017-10-10T09:07:51.933Z,115
2017-10-10T09:09:01.955Z,115
2017-10-10T09:10:12.307Z,110
2017-10-10T09:11:22.313Z,110
2017-10-10T09:12:32.328Z,110
2017-10-10T09:13:42.028Z,105
2017-10-10T09:14:52.363Z,110
2017-10-10T09:16:02.715Z,110
2017-10-10T09:17:13.111Z,110
2017-10-10T09:18:23.479Z,105
2017-10-10T09:19:33.173Z,105
2017-10-10T09:20:42.872Z,100
2017-10-10T09:21:53.216Z,100
2017-10-10T09:23:03.564Z,100
2017-10-10T09:24:13.905Z,100
2017-10-10T09:25:23.915Z,100
2017-10-10T09:26:33.611Z,100
2017-10-10T09:27:43.653Z,100
2017-10-10T09:28:54.010Z,100
2017-10-10T09:30:04.330Z,105
2017-10-10T09:31:14.699Z,110
2017-10-10T09:32:25.028Z,115
2017-10-10T09:33:35.372Z,115
2017-10-10T09:34:45.062Z,115
2017-10-10T09:35:55.090Z,120
2017-10-10T09:37:05.456Z,120
2017-10-10T09:38:15.786Z,115
2017-10-10T09:39:25.831Z,110
2017-10-10T09:40:35.869Z,110
2017-10-10T09:41:45.555Z,110
2017-10-10T09:42:55.891Z,110
2017-10-10T09:44:05.615Z,110
2017-10-10T09:45:15.651Z,110
2017-10-10T09:46:26.027Z,110
2017-10-10T09:47:36.406Z,105
2017-10-10T09:48:46.435Z,100
2017-10-10T09:49:56.783Z,95
2017-10-10T09:51:07.123Z,95
2017-10-10T09:52:16.822Z,90
2017-10-10T09:53:26.828Z,90
2017-10-10T09:54:36.861Z,90
2017-10-10T09:55:47.225Z,90
2017-10-10T09:56:57.239Z,95
2017-10-10T09:58:07.595Z,100
2017-10-10T09:59:17.953Z,110
2017-10-10T10:00:28.297Z,115
2017-10-10T10:01:38.635Z,120
2017-10-10T10:02:48.356Z,120
2017-10-10T10:03:58.717Z,120
2017-10-10T10:05:09.143Z,115
2017-10-10T10:06:19.497Z,110
2017-10-10T10:07:29.851Z,105
2017-10-10T10:08:39.868Z,100
2017-10-10T10:09:49.879Z,95
2017-10-10T10:11:00.238Z,95
2017-10-10T10:12:10.268Z,90
2017-10-10T10:13:20.607Z,90
2017-10-10T10:14:30.955Z,95
2017-10-10T10:15:41.306Z,95
2017-10-10T10:16:51.382Z,90
2017-10-10T10:18:01.755Z,90
2017-10-10T10:19:12.101Z,90
2017-10-10T10:20:22.435Z,90
2017-10-10T10:21:32.781Z,90
2017-10-10T10:22:43.126Z,90
2017-10-10T10:23:53.463Z,95
2017-10-10T10:25:04.711Z,100
2017-10-10T10:26:14.740Z,105
2017-10-10T10:27:25.577Z,105
2017-10-10T10:28:35.961Z,100
2017-10-10T10:29:46.359Z,100
2017-10-10T10:30:56.380Z,100
2017-10-10T10:32:07.085Z,100
2017-10-10T10:33:17.441Z,100
2017-10-10T10:34:27.540Z,95
2017-10-10T10:35:37.574Z,95
2017-10-10T10:36:47.593Z,90
2017-10-10T10:37:57.960Z,85
2017-10-10T10:39:07.976Z,85
2017-10-10T10:40:18.096Z,85
2017-10-10T10:41:28.120Z,85
2017-10-10T10:42:38.491Z,90
2017-10-10T10:43:48.849Z,100
2017-10-10T10:44:59.225Z,100
2017-10-10T10:46:09.593Z,105
2017-10-10T10:47:19.949Z,110
2017-10-10T10:48:33.085Z,115
2017-10-10T10:49:43.115Z,120
2017-10-10T10:50:53.160Z,135
2017-10-10T10:52:03.519Z,150
2017-10-10T10:53:13.855Z,165
2017-10-10T10:54:24.208Z,165
2017-10-10T10:55:34.568Z,165
2017-10-10T10:56:44.947Z,165
2017-10-10T10:57:55.008Z,165
2017-10-10T10:59:05.364Z,165
2017-10-10T11:00:17.671Z,170
2017-10-10T11:01:32.105Z,165
2017-10-10T11:02:42.628Z,165
2017-10-10T11:03:53.044Z,170
2017-10-10T11:05:03.388Z,170
2017-10-10T11:06:14.871Z,175
2017-10-10T11:07:25.480Z,175
2017-10-10T11:08:35.476Z,175
2017-10-10T11:09:45.564Z,170
2017-10-10T11:10:55.918Z,160
2017-10-10T11:12:06.268Z,155
2017-10-10T11:13:16.618Z,150
2017-10-10T11:14:26.956Z,150
2017-10-10T11:15:37.343Z,150
2017-10-10T11:16:47.694Z,150
2017-10-10T11:17:57.752Z,155
2017-10-10T11:19:08.120Z,165
2017-10-10T11:20:18.475Z,175
2017-10-10T11:21:28.831Z,180
2017-10-10T11:22:39.187Z,180
2017-10-10T11:23:49.567Z,180
2017-10-10T11:24:59.936Z,175
2017-10-10T11:26:10.308Z,170
2017-10-10T11:27:20.703Z,170
2017-10-10T11:28:31.058Z,170
2017-10-10T11:29:41.905Z,165
2017-10-10T11:30:51.939Z,160
2017-10-10T11:32:02.299Z,155
2017-10-10T11:33:12.332Z,155
2017-10-10T11:34:22.685Z,155
2017-10-10T11:35:33.035Z,160
2017-10-10T11:36:43.372Z,160
2017-10-10T11:37:53.385Z,160
2017-10-10T11:39:03.726Z,160
2017-10-10T11:40:14.104Z,155
2017-10-10T11:41:24.444Z,155
2017-10-10T11:42:34.503Z,155
2017-10-10T11:43:44.521Z,160
2017-10-10T11:44:54.571Z,165
2017-10-10T11:46:04.949Z,165
2017-10-10T11:47:14.991Z,160
2017-10-10T11:48:25.336Z,155
2017-10-10T11:49:38.076Z,150
2017-10-10T11:50:48.190Z,150
2017-10-10T11:51:58.543Z,150
2017-10-10T11:53:08.577Z,155
2017-10-10T11:54:18.586Z,150
2017-10-10T11:55:28.929Z,145
2017-10-10T11:56:39.351Z,140
2017-10-10T11:57:49.711Z,135
2017-10-10T11:59:00.070Z,135
2017-10-10T12:00:10.085Z,135
2017-10-10T12:01:20.431Z,140
2017-10-10T12:02:30.818Z,150
2017-10-10T12:03:40.531Z,155
2017-10-10T12:04:50.584Z,160
2017-10-10T12:06:00.931Z,160
2017-10-10T12:07:10.629Z,155
2017-10-10T12:08:21.037Z,155
2017-10-10T12:09:31.384Z,145
2017-10-10T12:10:41.744Z,140
2017-10-10T12:11:52.405Z,140
2017-10-10T12:13:05.362Z,140
2017-10-10T12:14:17.302Z,140
2017-10-10T12:15:31.730Z,145
2017-10-10T12:16:42.286Z,175
2017-10-10T12:17:52.644Z,165
2017-10-10T12:19:03.022Z,165
2017-10-10T12:20:13.063Z,165
2017-10-10T12:21:23.412Z,165
2017-10-10T12:22:33.776Z,160
2017-10-10T12:23:44.143Z,160
2017-10-10T12:24:54.500Z,160
2017-10-10T12:26:04.509Z,160
2017-10-10T12:27:18.093Z,160
2017-10-10T12:28:29.818Z,270
2017-10-10T12:29:40.198Z,270
2017-10-10T12:30:50.559Z,270
2017-10-10T12:31:59.940Z,255
2017-10-10T12:33:10.294Z,225
2017-10-10T12:34:20.650Z,195
2017-10-10T12:35:30.677Z,260
2017-10-10T12:36:40.043Z,195
2017-10-10T12:37:50.411Z,265
2017-10-10T12:39:00.773Z,260
2017-10-10T12:40:10.809Z,255
2017-10-10T12:41:21.157Z,150
2017-10-10T12:42:31.521Z,145
2017-10-10T12:43:41.916Z,145
2017-10-10T12:44:52.206Z,135
2017-10-10T12:46:01.909Z,135
2017-10-10T12:47:12.288Z,125
2017-10-10T12:48:22.312Z,120
2017-10-10T12:49:32.639Z,110
2017-10-10T12:50:42.643Z,110
2017-10-10T12:51:52.673Z,105
2017-10-10T12:53:03.177Z,100
2017-10-10T12:54:13.181Z,100
2017-10-10T12:55:22.548Z,95
2017-10-10T12:56:32.903Z,90
2017-10-10T12:57:42.932Z,85
2017-10-10T12:58:52.952Z,80
2017-10-10T13:00:03.323Z,80
2017-10-10T13:01:13.711Z,75
2017-10-10T13:02:24.047Z,75
2017-10-10T13:03:34.397Z,75
2017-10-10T13:04:44.744Z,75
2017-10-10T13:05:54.773Z,70
2017-10-10T13:07:05.124Z,70
2017-10-10T13:08:15.493Z,70
2017-10-10T13:09:25.537Z,70
2017-10-10T13:10:35.856Z,70
2017-10-10T13:11:45.894Z,70
2017-10-10T13:12:56.271Z,70
2017-10-10T13:14:06.663Z,75
2017-10-10T13:15:17.006Z,75
2017-10-10T13:16:27.014Z,75
2017-10-10T13:17:37.385Z,80
2017-10-10T13:18:47.732Z,85
2017-10-10T13:19:58.091Z,85
2017-10-10T13:21:08.133Z,85
2017-10-10T13:22:18.163Z,85
2017-10-10T13:23:28.536Z,80
2017-10-10T13:24:38.874Z,80
2017-10-10T13:25:49.243Z,80
2017-10-10T13:26:59.257Z,80
2017-10-10T13:28:12.333Z,75
2017-10-10T13:29:26.344Z,70
2017-10-10T13:30:36.330Z,70
2017-10-10T13:31:46.695Z,70
2017-10-10T13:32:57.041Z,70
2017-10-10T13:34:06.771Z,65
2017-10-10T13:35:17.139Z,65
2017-10-10T13:36:27.542Z,60
2017-10-10T13:37:37.578Z,55
2017-10-10T13:38:47.928Z,45
2017-10-10T13:39:57.960Z,45
2017-10-10T13:41:08.305Z,40
2017-10-10T13:42:18.387Z,40
2017-10-10T13:43:28.434Z,40
2017-10-10T13:44:38.807Z,40
2017-10-10T13:45:49.154Z,40
2017-10-10T13:46:59.526Z,40
2017-10-10T13:48:09.877Z,40
2017-10-10T13:49:19.589Z,35
2017-10-10T13:50:29.937Z,35
2017-10-10T13:51:40.288Z,35
2017-10-10T13:52:50.298Z,35
2017-10-10T13:54:00.646Z,35
2017-10-10T13:55:11.050Z,35
2017-10-10T13:56:21.432Z,35
2017-10-10T13:57:31.456Z,35
2017-10-10T13:58:41.833Z,40
2017-10-10T13:59:52.179Z,40
2017-10-10T14:01:02.525Z,40
2017-10-10T14:02:11.897Z,40
2017-10-10T14:03:22.227Z,40
2017-10-10T14:04:36.914Z,40
2017-10-10T14:05:47.010Z,40
2017-10-10T14:06:57.344Z,40
2017-10-10T14:08:07.375Z,40
2017-10-10T14:09:17.709Z,40
2017-10-10T14:10:27.742Z,40
2017-10-10T14:11:37.793Z,40
2017-10-10T14:12:48.131Z,40
2017-10-10T14:13:58.490Z,40
2017-10-10T14:15:08.882Z,40
2017-10-10T14:16:18.901Z,45
2017-10-10T14:17:28.925Z,45
2017-10-10T14:18:38.938Z,45
2017-10-10T14:19:48.637Z,45
2017-10-10T14:20:58.998Z,40
2017-10-10T14:22:09.347Z,40
2017-10-10T14:23:19.701Z,40
2017-10-10T14:24:30.096Z,40
2017-10-10T14:25:40.436Z,40
2017-10-10T14:26:50.794Z,40
2017-10-10T14:28:00.819Z,40
2017-10-10T14:29:10.849Z,40
2017-10-10T14:30:21.205Z,40
2017-10-10T14:31:31.241Z,40
2017-10-10T14:32:41.591Z,45
2017-10-10T14:33:51.940Z,45
2017-10-10T14:35:02.304Z,50
2017-10-10T14:36:12.364Z,50
2017-10-10T14:37:22.402Z,50
2017-10-10T14:38:32.749Z,50
2017-10-10T14:39:42.763Z,50
2017-10-10T14:40:52.829Z,50
2017-10-10T14:42:03.172Z,50
2017-10-10T14:43:13.525Z,50
2017-10-10T14:44:23.895Z,50
2017-10-10T14:45:33.962Z,90
2017-10-10T14:46:44.027Z,55
2017-10-10T14:47:54.051Z,55
2017-10-10T14:49:04.398Z,60
2017-10-10T14:50:14.422Z,85
2017-10-10T14:51:24.773Z,85
2017-10-10T14:52:35.176Z,45
2017-10-10T14:53:45.511Z,45
2017-10-10T14:54:55.228Z,35
2017-10-10T14:56:05.560Z,35
2017-10-10T14:57:15.923Z,35
2017-10-10T14:58:26.327Z,40
2017-10-10T14:59:36.433Z,45
2017-10-10T15:00:46.515Z,45
2017-10-10T15:01:56.940Z,45
2017-10-10T15:03:07.379Z,45
2017-10-10T15:04:17.807Z,45
2017-10-10T15:05:27.879Z,45
2017-10-10T15:06:37.315Z,45
2017-10-10T15:07:47.724Z,40
2017-10-10T15:08:58.137Z,30
2017-10-10T15:10:08.571Z,35
2017-10-10T15:11:18.680Z,30
2017-10-10T15:12:29.088Z,40
2017-10-10T15:13:39.515Z,45
2017-10-10T15:14:49.602Z,40
2017-10-10T15:16:00.080Z,40
2017-10-10T15:17:10.507Z,40
2017-10-10T15:18:20.572Z,40
2017-10-10T15:19:31.002Z,40
2017-10-10T15:20:41.415Z,35
2017-10-10T15:21:51.827Z,35
2017-10-10T15:23:02.244Z,35
2017-10-10T15:24:17.068Z,25
2017-10-10T15:25:27.683Z,30
2017-10-10T15:26:38.094Z,20
2017-10-10T15:27:48.495Z,20
2017-10-10T15:28:58.900Z,20
2017-10-10T15:30:08.964Z,20
2017-10-10T15:31:19.381Z,20
2017-10-10T15:32:29.789Z,15
2017-10-10T15:33:39.588Z,15
2017-10-10T15:34:50.004Z,15
2017-10-10T15:36:00.079Z,15
2017-10-10T15:37:10.480Z,15
2017-10-10T15:38:19.899Z,15
2017-10-10T15:39:30.021Z,15
2017-10-10T15:40:40.105Z,15
2017-10-10T15:41:50.524Z,15
2017-10-10T15:43:00.931Z,15
2017-10-10T15:44:11.331Z,15
2017-10-10T15:45:21.476Z,10
2017-10-10T15:46:31.580Z,10
2017-10-10T15:47:42.016Z,10
2017-10-10T15:48:52.414Z,10
2017-10-10T15:50:02.495Z,10
2017-10-10T15:51:12.972Z,10
2017-10-10T15:52:23.393Z,10
2017-10-10T15:53:33.822Z,10
2017-10-10T15:54:43.933Z,5
2017-10-10T15:55:54.396Z,5
2017-10-10T15:57:04.967Z,5
2017-10-10T15:58:15.099Z,5
2017-10-10T15:59:25.577Z,5
2017-10-10T16:00:35.991Z,5
2017-10-10T16:01:45.734Z,5
2017-10-10T16:02:56.202Z,0
2017-10-10T16:04:06.603Z,0
2017-10-10T16:05:17.091Z,0
2017-10-10T16:06:27.297Z,0
2017-10-10T16:07:37.181Z,0
2017-10-10T16:08:47.686Z,0
2017-10-10T16:09:58.094Z,0
2017-10-10T16:11:08.517Z,0
2017-10-10T16:12:18.918Z,0
2017-10-10T16:13:29.015Z,0
2017-10-10T16:14:39.450Z,0
2017-10-10T16:15:49.568Z,0
2017-10-10T16:16:59.737Z,0
2017-10-10T16:18:09.630Z,0
2017-10-10T16:19:20.095Z,0
2017-10-10T16:20:30.572Z,0
2017-10-10T16:21:40.958Z,0
2017-10-10T16:22:51.379Z,0
2017-10-10T16:24:01.454Z,0
2017-10-10T16:25:11.919Z,0
2017-10-10T16:26:22.435Z,0
2017-10-10T16:27:32.609Z,0
2017-10-10T16:28:43.044Z,0
2017-10-10T16:29:53.126Z,0
2017-10-10T16:31:03.527Z,0
2017-10-10T16:32:13.965Z,0
2017-10-10T16:33:24.417Z,0
2017-10-10T16:34:34.904Z,0
2017-10-10T16:35:45.430Z,0
2017-10-10T16:36:55.876Z,0
2017-10-10T16:38:06.335Z,0
2017-10-10T16:39:18.019Z,0
2017-10-10T16:40:28.572Z,0
2017-10-10T16:41:38.327Z,0
2017-10-10T16:42:48.763Z,0
2017-10-10T16:43:59.228Z,0
2017-10-10T16:45:09.651Z,0
2017-10-10T16:46:20.060Z,0
2017-10-10T16:47:30.498Z,0
2017-10-10T16:48:40.588Z,0
2017-10-10T16:49:51.085Z,0
2017-10-10T16:51:01.532Z,0
2017-10-10T16:52:11.278Z,0
2017-10-10T16:53:21.389Z,0
2017-10-10T16:54:31.824Z,0
2017-10-10T16:55:42.301Z,0
2017-10-10T16:56:52.702Z,0
2017-10-10T16:58:03.264Z,0
2017-10-10T16:59:13.699Z,0
2017-10-10T17:00:23.803Z,0
2017-10-10T17:01:34.456Z,0
2017-10-10T17:02:44.892Z,0
2017-10-10T17:03:55.524Z,0
2017-10-10T17:05:06.213Z,0
2017-10-10T17:06:16.657Z,0
2017-10-10T17:07:27.235Z,0
2017-10-10T17:08:37.732Z,0
2017-10-10T17:10:01.247Z,0
2017-10-10T17:11:13.009Z,0
2017-10-10T17:12:25.756Z,0
2017-10-10T17:13:36.245Z,0
2017-10-10T17:14:46.880Z,0
2017-10-10T17:15:57.779Z,0
2017-10-10T17:17:08.224Z,0
2017-10-10T17:18:24.491Z,0
2017-10-10T17:19:34.969Z,0